sensor_id;sensor_type;location;lat;lon;timestamp;P1;durP1;ratioP1;P2;durP2;ratioP2
78209;SDS011;67485;48.816;9.930;2023-02-11T00:01:46;39.17;;;17.27;;
78209;SDS011;67485;48.816;9.930;2023-02-11T00:04:11;32.80;;;14.38;;
78209;SDS011;67485;48.816;9.930;2023-02-11T00:06:37;29.77;;;13.03;;
78209;SDS011;67485;48.816;9.930;2023-02-11T00:09:03;31.30;;;12.75;;
78209;SDS011;67485;48.816;9.930;2023-02-11T00:11:29;27.50;;;12.70;;
78209;SDS011;67485;48.816;9.930;2023-02-11T00:13:59;27.57;;;13.53;;
78209;SDS011;67485;48.816;9.930;2023-02-11T00:16:27;31.75;;;13.32;;
78209;SDS011;67485;48.816;9.930;2023-02-11T00:18:53;32.38;;;12.90;;
78209;SDS011;67485;48.816;9.930;2023-02-11T00:21:24;28.20;;;12.83;;
78209;SDS011;67485;48.816;9.930;2023-02-11T00:23:50;26.52;;;12.38;;
78209;SDS011;67485;48.816;9.930;2023-02-11T00:26:18;29.52;;;14.75;;
78209;SDS011;67485;48.816;9.930;2023-02-11T00:28:45;27.10;;;13.55;;
78209;SDS011;67485;48.816;9.930;2023-02-11T00:31:13;27.38;;;12.48;;
78209;SDS011;67485;48.816;9.930;2023-02-11T00:33:40;28.83;;;12.37;;
78209;SDS011;67485;48.816;9.930;2023-02-11T00:36:10;31.45;;;13.90;;
78209;SDS011;67485;48.816;9.930;2023-02-11T00:38:39;30.58;;;12.93;;
78209;SDS011;67485;48.816;9.930;2023-02-11T00:41:07;30.35;;;13.10;;
78209;SDS011;67485;48.816;9.930;2023-02-11T00:43:34;31.90;;;14.47;;
78209;SDS011;67485;48.816;9.930;2023-02-11T00:45:59;35.38;;;14.15;;
78209;SDS011;67485;48.816;9.930;2023-02-11T00:48:25;60.60;;;22.23;;
78209;SDS011;67485;48.816;9.930;2023-02-11T00:50:51;66.53;;;21.80;;
78209;SDS011;67485;48.816;9.930;2023-02-11T00:53:17;39.72;;;15.13;;
78209;SDS011;67485;48.816;9.930;2023-02-11T00:55:42;31.47;;;13.07;;
78209;SDS011;67485;48.816;9.930;2023-02-11T00:58:08;24.98;;;12.15;;
78209;SDS011;67485;48.816;9.930;2023-02-11T01:00:34;26.13;;;12.20;;
78209;SDS011;67485;48.816;9.930;2023-02-11T01:02:59;26.92;;;11.80;;
78209;SDS011;67485;48.816;9.930;2023-02-11T01:05:25;27.63;;;11.57;;
78209;SDS011;67485;48.816;9.930;2023-02-11T01:07:51;34.30;;;14.68;;
78209;SDS011;67485;48.816;9.930;2023-02-11T01:10:16;48.40;;;17.23;;
78209;SDS011;67485;48.816;9.930;2023-02-11T01:12:42;46.97;;;17.70;;
78209;SDS011;67485;48.816;9.930;2023-02-11T01:15:08;31.13;;;13.65;;
78209;SDS011;67485;48.816;9.930;2023-02-11T01:17:36;28.60;;;12.93;;
78209;SDS011;67485;48.816;9.930;2023-02-11T01:20:05;28.80;;;13.13;;
78209;SDS011;67485;48.816;9.930;2023-02-11T01:22:35;28.80;;;12.00;;
78209;SDS011;67485;48.816;9.930;2023-02-11T01:25:04;30.30;;;12.88;;
78209;SDS011;67485;48.816;9.930;2023-02-11T01:27:31;26.85;;;11.23;;
78209;SDS011;67485;48.816;9.930;2023-02-11T01:29:56;25.50;;;12.27;;
78209;SDS011;67485;48.816;9.930;2023-02-11T01:32:22;26.75;;;11.45;;
78209;SDS011;67485;48.816;9.930;2023-02-11T01:34:48;27.90;;;11.90;;
78209;SDS011;67485;48.816;9.930;2023-02-11T01:37:13;25.02;;;11.77;;
78209;SDS011;67485;48.816;9.930;2023-02-11T01:39:39;24.50;;;10.83;;
78209;SDS011;67485;48.816;9.930;2023-02-11T01:42:05;26.25;;;12.15;;
78209;SDS011;67485;48.816;9.930;2023-02-11T01:44:32;28.73;;;11.85;;
78209;SDS011;67485;48.816;9.930;2023-02-11T01:47:00;26.25;;;11.70;;
78209;SDS011;67485;48.816;9.930;2023-02-11T01:50:11;28.17;;;11.57;;
78209;SDS011;67485;48.816;9.930;2023-02-11T01:52:26;21.30;;;10.65;;
78209;SDS011;67485;48.816;9.930;2023-02-11T01:54:59;29.67;;;11.90;;
78209;SDS011;67485;48.816;9.930;2023-02-11T01:57:50;26.08;;;11.18;;
78209;SDS011;67485;48.816;9.930;2023-02-11T02:00:33;25.58;;;11.35;;
78209;SDS011;67485;48.816;9.930;2023-02-11T02:03:07;25.67;;;12.02;;
78209;SDS011;67485;48.816;9.930;2023-02-11T02:10:50;27.93;;;12.07;;
78209;SDS011;67485;48.816;9.930;2023-02-11T02:13:23;30.63;;;12.50;;
78209;SDS011;67485;48.816;9.930;2023-02-11T02:15:52;29.23;;;12.70;;
78209;SDS011;67485;48.816;9.930;2023-02-11T02:34:21;30.65;;;13.45;;
78209;SDS011;67485;48.816;9.930;2023-02-11T02:37:07;29.60;;;12.70;;
78209;SDS011;67485;48.816;9.930;2023-02-11T02:39:41;27.83;;;12.65;;
78209;SDS011;67485;48.816;9.930;2023-02-11T02:42:11;30.65;;;13.52;;
78209;SDS011;67485;48.816;9.930;2023-02-11T02:44:37;30.33;;;12.57;;
78209;SDS011;67485;48.816;9.930;2023-02-11T02:47:02;27.77;;;13.33;;
78209;SDS011;67485;48.816;9.930;2023-02-11T02:49:28;31.15;;;13.20;;
78209;SDS011;67485;48.816;9.930;2023-02-11T02:52:06;27.00;;;13.43;;
78209;SDS011;67485;48.816;9.930;2023-02-11T03:03:13;25.88;;;11.80;;
78209;SDS011;67485;48.816;9.930;2023-02-11T03:05:48;26.50;;;12.85;;
78209;SDS011;67485;48.816;9.930;2023-02-11T03:11:03;28.73;;;12.07;;
78209;SDS011;67485;48.816;9.930;2023-02-11T03:13:33;31.17;;;13.18;;
78209;SDS011;67485;48.816;9.930;2023-02-11T03:16:03;31.48;;;12.52;;
78209;SDS011;67485;48.816;9.930;2023-02-11T03:18:34;29.70;;;13.40;;
78209;SDS011;67485;48.816;9.930;2023-02-11T03:21:04;28.73;;;12.88;;
78209;SDS011;67485;48.816;9.930;2023-02-11T03:23:35;27.77;;;13.50;;
78209;SDS011;67485;48.816;9.930;2023-02-11T03:26:10;29.77;;;12.77;;
78209;SDS011;67485;48.816;9.930;2023-02-11T03:29:00;28.75;;;12.90;;
78209;SDS011;67485;48.816;9.930;2023-02-11T03:34:30;28.17;;;13.13;;
78209;SDS011;67485;48.816;9.930;2023-02-11T03:37:09;36.05;;;14.95;;
78209;SDS011;67485;48.816;9.930;2023-02-11T03:39:40;33.20;;;13.15;;
78209;SDS011;67485;48.816;9.930;2023-02-11T03:42:10;29.92;;;13.32;;
78209;SDS011;67485;48.816;9.930;2023-02-11T03:44:40;31.27;;;13.57;;
78209;SDS011;67485;48.816;9.930;2023-02-11T03:47:10;31.20;;;13.55;;
78209;SDS011;67485;48.816;9.930;2023-02-11T03:49:39;31.02;;;13.32;;
78209;SDS011;67485;48.816;9.930;2023-02-11T03:52:07;31.17;;;13.23;;
78209;SDS011;67485;48.816;9.930;2023-02-11T03:54:35;26.90;;;13.05;;
78209;SDS011;67485;48.816;9.930;2023-02-11T03:57:04;30.38;;;13.15;;
78209;SDS011;67485;48.816;9.930;2023-02-11T03:59:30;28.52;;;12.35;;
78209;SDS011;67485;48.816;9.930;2023-02-11T04:01:55;27.17;;;13.07;;
78209;SDS011;67485;48.816;9.930;2023-02-11T04:04:23;31.02;;;13.23;;
78209;SDS011;67485;48.816;9.930;2023-02-11T04:06:49;28.80;;;13.23;;
78209;SDS011;67485;48.816;9.930;2023-02-11T04:09:14;30.40;;;13.13;;
78209;SDS011;67485;48.816;9.930;2023-02-11T04:11:40;27.33;;;13.63;;
78209;SDS011;67485;48.816;9.930;2023-02-11T04:14:06;31.10;;;13.47;;
78209;SDS011;67485;48.816;9.930;2023-02-11T04:16:31;28.40;;;12.52;;
78209;SDS011;67485;48.816;9.930;2023-02-11T04:18:57;31.03;;;12.90;;
78209;SDS011;67485;48.816;9.930;2023-02-11T04:21:23;28.70;;;13.48;;
78209;SDS011;67485;48.816;9.930;2023-02-11T04:23:48;30.83;;;13.07;;
78209;SDS011;67485;48.816;9.930;2023-02-11T04:26:14;26.63;;;12.90;;
78209;SDS011;67485;48.816;9.930;2023-02-11T04:28:39;27.25;;;13.45;;
78209;SDS011;67485;48.816;9.930;2023-02-11T04:31:05;30.27;;;13.83;;
78209;SDS011;67485;48.816;9.930;2023-02-11T04:33:31;29.48;;;13.40;;
78209;SDS011;67485;48.816;9.930;2023-02-11T04:35:57;32.10;;;13.67;;
78209;SDS011;67485;48.816;9.930;2023-02-11T04:38:22;33.97;;;14.10;;
78209;SDS011;67485;48.816;9.930;2023-02-11T04:40:48;31.73;;;13.13;;
78209;SDS011;67485;48.816;9.930;2023-02-11T04:43:14;27.10;;;13.40;;
78209;SDS011;67485;48.816;9.930;2023-02-11T04:45:40;29.15;;;13.85;;
78209;SDS011;67485;48.816;9.930;2023-02-11T04:48:05;28.87;;;13.47;;
78209;SDS011;67485;48.816;9.930;2023-02-11T04:50:31;27.33;;;13.47;;
78209;SDS011;67485;48.816;9.930;2023-02-11T04:52:57;30.88;;;13.50;;
78209;SDS011;67485;48.816;9.930;2023-02-11T04:55:22;25.73;;;13.50;;
78209;SDS011;67485;48.816;9.930;2023-02-11T04:57:48;31.60;;;13.18;;
78209;SDS011;67485;48.816;9.930;2023-02-11T05:00:14;31.00;;;13.67;;
78209;SDS011;67485;48.816;9.930;2023-02-11T05:02:40;30.40;;;14.00;;
78209;SDS011;67485;48.816;9.930;2023-02-11T05:05:06;32.05;;;14.18;;
78209;SDS011;67485;48.816;9.930;2023-02-11T05:07:32;33.13;;;13.87;;
78209;SDS011;67485;48.816;9.930;2023-02-11T05:09:58;27.70;;;13.57;;
78209;SDS011;67485;48.816;9.930;2023-02-11T05:12:23;32.13;;;13.80;;
78209;SDS011;67485;48.816;9.930;2023-02-11T05:14:49;30.17;;;14.00;;
78209;SDS011;67485;48.816;9.930;2023-02-11T05:17:14;35.43;;;15.47;;
78209;SDS011;67485;48.816;9.930;2023-02-11T05:19:40;29.15;;;13.82;;
78209;SDS011;67485;48.816;9.930;2023-02-11T05:22:07;27.48;;;13.38;;
78209;SDS011;67485;48.816;9.930;2023-02-11T05:24:33;27.88;;;14.38;;
78209;SDS011;67485;48.816;9.930;2023-02-11T05:26:59;32.00;;;15.60;;
78209;SDS011;67485;48.816;9.930;2023-02-11T05:29:24;33.75;;;14.75;;
78209;SDS011;67485;48.816;9.930;2023-02-11T05:31:50;35.00;;;15.27;;
78209;SDS011;67485;48.816;9.930;2023-02-11T05:34:16;31.00;;;14.80;;
78209;SDS011;67485;48.816;9.930;2023-02-11T05:36:42;33.60;;;15.50;;
78209;SDS011;67485;48.816;9.930;2023-02-11T05:39:08;30.40;;;14.68;;
78209;SDS011;67485;48.816;9.930;2023-02-11T05:41:33;30.53;;;14.87;;
78209;SDS011;67485;48.816;9.930;2023-02-11T05:43:59;34.70;;;14.75;;
78209;SDS011;67485;48.816;9.930;2023-02-11T05:46:25;31.60;;;14.47;;
78209;SDS011;67485;48.816;9.930;2023-02-11T05:48:50;28.13;;;13.95;;
78209;SDS011;67485;48.816;9.930;2023-02-11T05:51:16;32.60;;;14.60;;
78209;SDS011;67485;48.816;9.930;2023-02-11T05:53:41;29.40;;;14.93;;
78209;SDS011;67485;48.816;9.930;2023-02-11T05:56:07;28.83;;;14.18;;
78209;SDS011;67485;48.816;9.930;2023-02-11T05:58:34;28.75;;;15.13;;
78209;SDS011;67485;48.816;9.930;2023-02-11T06:01:00;30.87;;;14.47;;
78209;SDS011;67485;48.816;9.930;2023-02-11T06:03:26;29.60;;;15.05;;
78209;SDS011;67485;48.816;9.930;2023-02-11T06:05:51;29.80;;;14.17;;
78209;SDS011;67485;48.816;9.930;2023-02-11T06:08:17;31.08;;;15.05;;
78209;SDS011;67485;48.816;9.930;2023-02-11T06:10:43;31.57;;;14.30;;
78209;SDS011;67485;48.816;9.930;2023-02-11T06:13:09;35.85;;;15.07;;
78209;SDS011;67485;48.816;9.930;2023-02-11T06:15:35;31.77;;;15.73;;
78209;SDS011;67485;48.816;9.930;2023-02-11T06:18:01;34.78;;;15.70;;
78209;SDS011;67485;48.816;9.930;2023-02-11T06:20:26;28.27;;;14.83;;
78209;SDS011;67485;48.816;9.930;2023-02-11T06:22:52;30.48;;;14.68;;
78209;SDS011;67485;48.816;9.930;2023-02-11T06:25:18;28.30;;;14.33;;
78209;SDS011;67485;48.816;9.930;2023-02-11T06:27:43;33.78;;;15.70;;
78209;SDS011;67485;48.816;9.930;2023-02-11T06:30:09;32.17;;;15.20;;
78209;SDS011;67485;48.816;9.930;2023-02-11T06:32:35;31.20;;;14.82;;
78209;SDS011;67485;48.816;9.930;2023-02-11T06:35:01;30.80;;;14.43;;
78209;SDS011;67485;48.816;9.930;2023-02-11T06:37:27;34.55;;;15.35;;
78209;SDS011;67485;48.816;9.930;2023-02-11T06:39:52;31.40;;;15.38;;
78209;SDS011;67485;48.816;9.930;2023-02-11T06:42:18;31.70;;;15.57;;
78209;SDS011;67485;48.816;9.930;2023-02-11T06:44:44;33.20;;;14.70;;
78209;SDS011;67485;48.816;9.930;2023-02-11T06:47:10;29.00;;;15.38;;
78209;SDS011;67485;48.816;9.930;2023-02-11T06:49:35;34.40;;;15.60;;
78209;SDS011;67485;48.816;9.930;2023-02-11T06:52:01;31.27;;;14.40;;
78209;SDS011;67485;48.816;9.930;2023-02-11T06:54:27;25.30;;;13.63;;
78209;SDS011;67485;48.816;9.930;2023-02-11T06:56:53;29.95;;;14.45;;
78209;SDS011;67485;48.816;9.930;2023-02-11T06:59:19;28.10;;;14.50;;
78209;SDS011;67485;48.816;9.930;2023-02-11T07:01:45;31.60;;;15.00;;
78209;SDS011;67485;48.816;9.930;2023-02-11T07:04:11;33.15;;;15.77;;
78209;SDS011;67485;48.816;9.930;2023-02-11T07:06:39;41.65;;;18.40;;
78209;SDS011;67485;48.816;9.930;2023-02-11T07:09:05;37.07;;;17.50;;
78209;SDS011;67485;48.816;9.930;2023-02-11T07:11:31;35.15;;;16.42;;
78209;SDS011;67485;48.816;9.930;2023-02-11T07:14:01;30.77;;;15.75;;
78209;SDS011;67485;48.816;9.930;2023-02-11T07:16:29;34.20;;;16.05;;
78209;SDS011;67485;48.816;9.930;2023-02-11T07:18:55;32.10;;;14.70;;
78209;SDS011;67485;48.816;9.930;2023-02-11T07:21:21;32.03;;;14.27;;
78209;SDS011;67485;48.816;9.930;2023-02-11T07:23:48;33.58;;;15.65;;
78209;SDS011;67485;48.816;9.930;2023-02-11T07:26:16;34.00;;;14.63;;
78209;SDS011;67485;48.816;9.930;2023-02-11T07:28:43;31.10;;;15.05;;
78209;SDS011;67485;48.816;9.930;2023-02-11T07:31:11;29.30;;;14.23;;
78209;SDS011;67485;48.816;9.930;2023-02-11T07:33:38;27.48;;;13.70;;
78209;SDS011;67485;48.816;9.930;2023-02-11T07:36:05;29.35;;;14.15;;
78209;SDS011;67485;48.816;9.930;2023-02-11T07:38:32;29.30;;;14.37;;
78209;SDS011;67485;48.816;9.930;2023-02-11T07:41:03;35.97;;;15.82;;
78209;SDS011;67485;48.816;9.930;2023-02-11T07:43:30;32.28;;;14.40;;
78209;SDS011;67485;48.816;9.930;2023-02-11T07:45:56;28.05;;;14.27;;
78209;SDS011;67485;48.816;9.930;2023-02-11T07:48:22;34.37;;;14.87;;
78209;SDS011;67485;48.816;9.930;2023-02-11T07:50:47;30.08;;;15.32;;
78209;SDS011;67485;48.816;9.930;2023-02-11T07:53:13;32.20;;;14.50;;
78209;SDS011;67485;48.816;9.930;2023-02-11T07:55:39;32.08;;;15.52;;
78209;SDS011;67485;48.816;9.930;2023-02-11T07:58:04;31.80;;;15.60;;
78209;SDS011;67485;48.816;9.930;2023-02-11T08:00:30;26.47;;;15.03;;
78209;SDS011;67485;48.816;9.930;2023-02-11T08:02:56;31.40;;;15.93;;
78209;SDS011;67485;48.816;9.930;2023-02-11T08:05:22;30.95;;;15.93;;
78209;SDS011;67485;48.816;9.930;2023-02-11T08:07:51;33.00;;;16.10;;
78209;SDS011;67485;48.816;9.930;2023-02-11T08:10:18;32.03;;;15.40;;
78209;SDS011;67485;48.816;9.930;2023-02-11T08:12:43;32.72;;;14.65;;
78209;SDS011;67485;48.816;9.930;2023-02-11T08:15:09;26.90;;;14.25;;
78209;SDS011;67485;48.816;9.930;2023-02-11T08:17:35;31.35;;;15.55;;
78209;SDS011;67485;48.816;9.930;2023-02-11T08:20:02;29.48;;;14.07;;
78209;SDS011;67485;48.816;9.930;2023-02-11T08:22:32;30.53;;;14.47;;
78209;SDS011;67485;48.816;9.930;2023-02-11T08:24:59;29.48;;;14.27;;
78209;SDS011;67485;48.816;9.930;2023-02-11T08:27:25;29.90;;;14.85;;
78209;SDS011;67485;48.816;9.930;2023-02-11T08:29:52;30.85;;;14.73;;
78209;SDS011;67485;48.816;9.930;2023-02-11T08:32:18;27.65;;;14.55;;
78209;SDS011;67485;48.816;9.930;2023-02-11T08:34:44;26.60;;;14.40;;
78209;SDS011;67485;48.816;9.930;2023-02-11T08:37:10;29.00;;;14.02;;
78209;SDS011;67485;48.816;9.930;2023-02-11T08:39:36;26.60;;;13.57;;
78209;SDS011;67485;48.816;9.930;2023-02-11T08:42:01;27.77;;;13.00;;
78209;SDS011;67485;48.816;9.930;2023-02-11T08:44:27;27.38;;;12.82;;
78209;SDS011;67485;48.816;9.930;2023-02-11T08:46:54;26.20;;;13.32;;
78209;SDS011;67485;48.816;9.930;2023-02-11T08:49:20;27.77;;;14.20;;
78209;SDS011;67485;48.816;9.930;2023-02-11T08:51:45;31.92;;;14.63;;
78209;SDS011;67485;48.816;9.930;2023-02-11T08:54:11;28.47;;;13.87;;
78209;SDS011;67485;48.816;9.930;2023-02-11T08:56:37;27.05;;;13.90;;
78209;SDS011;67485;48.816;9.930;2023-02-11T08:59:04;29.05;;;13.43;;
78209;SDS011;67485;48.816;9.930;2023-02-11T09:01:30;27.08;;;14.77;;
78209;SDS011;67485;48.816;9.930;2023-02-11T09:03:56;31.00;;;14.32;;
78209;SDS011;67485;48.816;9.930;2023-02-11T09:06:23;30.17;;;14.15;;
78209;SDS011;67485;48.816;9.930;2023-02-11T09:08:51;26.95;;;13.77;;
78209;SDS011;67485;48.816;9.930;2023-02-11T09:11:20;27.65;;;13.23;;
78209;SDS011;67485;48.816;9.930;2023-02-11T09:13:49;27.38;;;13.02;;
78209;SDS011;67485;48.816;9.930;2023-02-11T09:16:16;27.47;;;13.80;;
78209;SDS011;67485;48.816;9.930;2023-02-11T09:18:44;25.35;;;12.70;;
78209;SDS011;67485;48.816;9.930;2023-02-11T09:21:11;24.33;;;12.10;;
78209;SDS011;67485;48.816;9.930;2023-02-11T09:23:37;23.60;;;12.35;;
78209;SDS011;67485;48.816;9.930;2023-02-11T09:28:51;22.70;;;12.57;;
78209;SDS011;67485;48.816;9.930;2023-02-11T09:31:18;23.87;;;12.20;;
78209;SDS011;67485;48.816;9.930;2023-02-11T09:33:46;24.67;;;12.93;;
78209;SDS011;67485;48.816;9.930;2023-02-11T09:36:14;24.10;;;13.02;;
78209;SDS011;67485;48.816;9.930;2023-02-11T09:38:45;25.15;;;13.05;;
78209;SDS011;67485;48.816;9.930;2023-02-11T09:44:33;23.42;;;12.27;;
78209;SDS011;67485;48.816;9.930;2023-02-11T09:47:01;27.67;;;11.45;;
78209;SDS011;67485;48.816;9.930;2023-02-11T09:49:35;21.45;;;12.10;;
78209;SDS011;67485;48.816;9.930;2023-02-11T09:52:12;26.40;;;12.13;;
78209;SDS011;67485;48.816;9.930;2023-02-11T09:54:57;20.90;;;11.32;;
78209;SDS011;67485;48.816;9.930;2023-02-11T09:57:25;23.40;;;11.82;;
78209;SDS011;67485;48.816;9.930;2023-02-11T09:59:56;21.70;;;11.43;;
78209;SDS011;67485;48.816;9.930;2023-02-11T10:02:23;25.00;;;12.32;;
78209;SDS011;67485;48.816;9.930;2023-02-11T10:05:20;22.70;;;11.30;;
78209;SDS011;67485;48.816;9.930;2023-02-11T10:13:36;24.15;;;11.13;;
78209;SDS011;67485;48.816;9.930;2023-02-11T10:19:33;20.67;;;10.43;;
78209;SDS011;67485;48.816;9.930;2023-02-11T10:22:05;19.27;;;10.10;;
78209;SDS011;67485;48.816;9.930;2023-02-11T10:24:39;19.40;;;10.75;;
78209;SDS011;67485;48.816;9.930;2023-02-11T10:27:16;18.02;;;9.65;;
78209;SDS011;67485;48.816;9.930;2023-02-11T10:29:46;21.65;;;10.30;;
78209;SDS011;67485;48.816;9.930;2023-02-11T10:34:48;21.07;;;10.33;;
78209;SDS011;67485;48.816;9.930;2023-02-11T10:37:15;18.63;;;9.82;;
78209;SDS011;67485;48.816;9.930;2023-02-11T10:39:40;17.85;;;9.82;;
78209;SDS011;67485;48.816;9.930;2023-02-11T10:42:08;18.03;;;9.67;;
78209;SDS011;67485;48.816;9.930;2023-02-11T10:44:52;18.65;;;9.13;;
78209;SDS011;67485;48.816;9.930;2023-02-11T10:47:22;17.45;;;9.68;;
78209;SDS011;67485;48.816;9.930;2023-02-11T10:49:49;32.42;;;9.57;;
78209;SDS011;67485;48.816;9.930;2023-02-11T10:52:23;18.80;;;9.93;;
78209;SDS011;67485;48.816;9.930;2023-02-11T10:55:00;22.70;;;9.17;;
78209;SDS011;67485;48.816;9.930;2023-02-11T10:57:30;14.85;;;9.40;;
78209;SDS011;67485;48.816;9.930;2023-02-11T11:00:04;17.55;;;9.32;;
78209;SDS011;67485;48.816;9.930;2023-02-11T11:02:43;15.68;;;9.13;;
78209;SDS011;67485;48.816;9.930;2023-02-11T11:05:15;16.38;;;8.65;;
78209;SDS011;67485;48.816;9.930;2023-02-11T11:07:54;23.27;;;9.27;;
78209;SDS011;67485;48.816;9.930;2023-02-11T11:10:26;14.32;;;8.00;;
78209;SDS011;67485;48.816;9.930;2023-02-11T11:12:58;17.17;;;8.20;;
78209;SDS011;67485;48.816;9.930;2023-02-11T11:15:25;17.03;;;7.83;;
78209;SDS011;67485;48.816;9.930;2023-02-11T11:20:53;14.38;;;7.18;;
78209;SDS011;67485;48.816;9.930;2023-02-11T11:23:24;10.35;;;7.07;;
78209;SDS011;67485;48.816;9.930;2023-02-11T11:26:09;13.88;;;7.38;;
78209;SDS011;67485;48.816;9.930;2023-02-11T11:28:51;12.77;;;7.30;;
78209;SDS011;67485;48.816;9.930;2023-02-11T11:31:29;13.95;;;7.93;;
78209;SDS011;67485;48.816;9.930;2023-02-11T11:33:59;15.60;;;8.10;;
78209;SDS011;67485;48.816;9.930;2023-02-11T11:36:32;12.07;;;6.90;;
78209;SDS011;67485;48.816;9.930;2023-02-11T11:39:02;10.77;;;6.80;;
78209;SDS011;67485;48.816;9.930;2023-02-11T11:41:56;11.13;;;7.43;;
78209;SDS011;67485;48.816;9.930;2023-02-11T11:44:33;12.43;;;7.20;;
78209;SDS011;67485;48.816;9.930;2023-02-11T11:47:06;14.25;;;7.30;;
78209;SDS011;67485;48.816;9.930;2023-02-11T11:50:15;13.05;;;6.55;;
78209;SDS011;67485;48.816;9.930;2023-02-11T11:52:51;24.40;;;9.68;;
78209;SDS011;67485;48.816;9.930;2023-02-11T11:55:43;25.53;;;8.80;;
78209;SDS011;67485;48.816;9.930;2023-02-11T11:58:15;17.00;;;7.43;;
78209;SDS011;67485;48.816;9.930;2023-02-11T12:06:40;13.65;;;7.07;;
78209;SDS011;67485;48.816;9.930;2023-02-11T12:09:34;12.30;;;6.73;;
78209;SDS011;67485;48.816;9.930;2023-02-11T12:14:54;14.02;;;7.22;;
78209;SDS011;67485;48.816;9.930;2023-02-11T12:28:13;10.07;;;6.55;;
78209;SDS011;67485;48.816;9.930;2023-02-11T12:33:50;12.73;;;6.38;;
78209;SDS011;67485;48.816;9.930;2023-02-11T12:39:45;10.70;;;6.95;;
78209;SDS011;67485;48.816;9.930;2023-02-11T12:42:23;9.93;;;5.88;;
78209;SDS011;67485;48.816;9.930;2023-02-11T12:45:14;11.85;;;6.78;;
78209;SDS011;67485;48.816;9.930;2023-02-11T12:53:45;12.85;;;6.38;;
78209;SDS011;67485;48.816;9.930;2023-02-11T12:56:35;10.55;;;5.53;;
78209;SDS011;67485;48.816;9.930;2023-02-11T12:59:11;8.80;;;5.70;;
78209;SDS011;67485;48.816;9.930;2023-02-11T13:01:41;9.82;;;5.82;;
78209;SDS011;67485;48.816;9.930;2023-02-11T13:07:41;11.65;;;6.35;;
78209;SDS011;67485;48.816;9.930;2023-02-11T13:10:04;10.07;;;6.13;;
78209;SDS011;67485;48.816;9.930;2023-02-11T13:12:44;12.52;;;6.47;;
78209;SDS011;67485;48.816;9.930;2023-02-11T13:15:32;14.68;;;6.85;;
78209;SDS011;67485;48.816;9.930;2023-02-11T13:23:14;12.00;;;6.40;;
78209;SDS011;67485;48.816;9.930;2023-02-11T13:32:04;13.18;;;6.65;;
78209;SDS011;67485;48.816;9.930;2023-02-11T13:37:12;13.73;;;6.68;;
78209;SDS011;67485;48.816;9.930;2023-02-11T13:39:56;12.33;;;6.90;;
78209;SDS011;67485;48.816;9.930;2023-02-11T13:42:51;11.55;;;6.35;;
78209;SDS011;67485;48.816;9.930;2023-02-11T13:47:58;12.35;;;6.72;;
78209;SDS011;67485;48.816;9.930;2023-02-11T13:50:26;13.20;;;7.47;;
78209;SDS011;67485;48.816;9.930;2023-02-11T13:53:00;12.30;;;7.27;;
78209;SDS011;67485;48.816;9.930;2023-02-11T13:55:27;13.20;;;6.88;;
78209;SDS011;67485;48.816;9.930;2023-02-11T14:14:02;13.50;;;7.25;;
78209;SDS011;67485;48.816;9.930;2023-02-11T14:19:45;14.90;;;7.20;;
78209;SDS011;67485;48.816;9.930;2023-02-11T14:22:13;13.50;;;7.10;;
78209;SDS011;67485;48.816;9.930;2023-02-11T14:24:50;15.27;;;7.55;;
78209;SDS011;67485;48.816;9.930;2023-02-11T14:27:30;13.27;;;7.20;;
78209;SDS011;67485;48.816;9.930;2023-02-11T14:30:10;12.60;;;6.53;;
78209;SDS011;67485;48.816;9.930;2023-02-11T14:41:17;10.80;;;6.57;;
78209;SDS011;67485;48.816;9.930;2023-02-11T14:43:48;11.40;;;6.20;;
78209;SDS011;67485;48.816;9.930;2023-02-11T14:46:26;14.27;;;6.37;;
78209;SDS011;67485;48.816;9.930;2023-02-11T14:48:57;12.98;;;6.38;;
78209;SDS011;67485;48.816;9.930;2023-02-11T14:54:10;13.07;;;7.20;;
78209;SDS011;67485;48.816;9.930;2023-02-11T14:56:39;12.38;;;6.50;;
78209;SDS011;67485;48.816;9.930;2023-02-11T14:59:16;12.23;;;6.67;;
78209;SDS011;67485;48.816;9.930;2023-02-11T15:01:45;15.40;;;7.15;;
78209;SDS011;67485;48.816;9.930;2023-02-11T15:04:24;13.27;;;7.07;;
78209;SDS011;67485;48.816;9.930;2023-02-11T15:06:52;13.43;;;7.13;;
78209;SDS011;67485;48.816;9.930;2023-02-11T15:09:20;13.95;;;7.53;;
78209;SDS011;67485;48.816;9.930;2023-02-11T15:11:52;16.67;;;8.10;;
78209;SDS011;67485;48.816;9.930;2023-02-11T15:14:32;14.07;;;7.93;;
78209;SDS011;67485;48.816;9.930;2023-02-11T15:17:00;13.70;;;7.90;;
78209;SDS011;67485;48.816;9.930;2023-02-11T15:19:28;21.25;;;7.97;;
78209;SDS011;67485;48.816;9.930;2023-02-11T15:22:07;17.17;;;8.32;;
78209;SDS011;67485;48.816;9.930;2023-02-11T15:24:46;14.53;;;8.27;;
78209;SDS011;67485;48.816;9.930;2023-02-11T15:27:23;14.98;;;7.95;;
78209;SDS011;67485;48.816;9.930;2023-02-11T15:29:50;14.85;;;7.80;;
78209;SDS011;67485;48.816;9.930;2023-02-11T15:32:23;17.88;;;8.95;;
78209;SDS011;67485;48.816;9.930;2023-02-11T15:34:51;15.77;;;8.88;;
78209;SDS011;67485;48.816;9.930;2023-02-11T15:37:22;19.97;;;9.30;;
78209;SDS011;67485;48.816;9.930;2023-02-11T15:39:50;14.77;;;8.00;;
78209;SDS011;67485;48.816;9.930;2023-02-11T15:42:27;14.43;;;7.70;;
78209;SDS011;67485;48.816;9.930;2023-02-11T15:47:39;16.70;;;8.52;;
78209;SDS011;67485;48.816;9.930;2023-02-11T15:52:46;15.73;;;8.32;;
78209;SDS011;67485;48.816;9.930;2023-02-11T15:55:13;14.13;;;8.40;;
78209;SDS011;67485;48.816;9.930;2023-02-11T15:57:42;17.88;;;8.60;;
78209;SDS011;67485;48.816;9.930;2023-02-11T16:00:19;16.75;;;7.88;;
78209;SDS011;67485;48.816;9.930;2023-02-11T16:02:47;16.40;;;9.33;;
78209;SDS011;67485;48.816;9.930;2023-02-11T16:05:31;19.83;;;9.13;;
78209;SDS011;67485;48.816;9.930;2023-02-11T16:07:59;20.13;;;10.30;;
78209;SDS011;67485;48.816;9.930;2023-02-11T16:10:36;19.98;;;9.38;;
78209;SDS011;67485;48.816;9.930;2023-02-11T16:18:18;15.38;;;9.18;;
78209;SDS011;67485;48.816;9.930;2023-02-11T16:20:59;20.48;;;9.43;;
78209;SDS011;67485;48.816;9.930;2023-02-11T16:23:27;18.85;;;10.50;;
78209;SDS011;67485;48.816;9.930;2023-02-11T16:25:57;16.13;;;9.57;;
78209;SDS011;67485;48.816;9.930;2023-02-11T16:28:26;17.98;;;9.30;;
78209;SDS011;67485;48.816;9.930;2023-02-11T16:30:53;18.27;;;9.73;;
78209;SDS011;67485;48.816;9.930;2023-02-11T16:33:20;15.70;;;9.18;;
78209;SDS011;67485;48.816;9.930;2023-02-11T16:35:46;16.73;;;9.50;;
78209;SDS011;67485;48.816;9.930;2023-02-11T16:38:13;17.83;;;9.02;;
78209;SDS011;67485;48.816;9.930;2023-02-11T16:40:40;19.08;;;9.65;;
78209;SDS011;67485;48.816;9.930;2023-02-11T16:43:06;20.70;;;11.38;;
78209;SDS011;67485;48.816;9.930;2023-02-11T16:45:35;20.27;;;10.95;;
78209;SDS011;67485;48.816;9.930;2023-02-11T16:48:03;18.30;;;10.37;;
78209;SDS011;67485;48.816;9.930;2023-02-11T16:50:32;23.67;;;10.05;;
78209;SDS011;67485;48.816;9.930;2023-02-11T16:52:58;17.92;;;10.25;;
78209;SDS011;67485;48.816;9.930;2023-02-11T16:55:26;17.30;;;10.18;;
78209;SDS011;67485;48.816;9.930;2023-02-11T16:57:52;17.90;;;10.32;;
78209;SDS011;67485;48.816;9.930;2023-02-11T17:00:18;18.70;;;9.87;;
78209;SDS011;67485;48.816;9.930;2023-02-11T17:02:44;18.77;;;9.85;;
78209;SDS011;67485;48.816;9.930;2023-02-11T17:05:18;20.48;;;9.45;;
78209;SDS011;67485;48.816;9.930;2023-02-11T17:07:47;18.37;;;10.07;;
78209;SDS011;67485;48.816;9.930;2023-02-11T17:10:15;20.20;;;9.82;;